Huvudsida
METAR-TAF:

METAR-TAF

Flygplatser :

Militär flygplats

Solenzara, Frankrike

latitud: 41-55N, longitud: 009-24E, höjd: 8 m

Aktuellt väderrapport

Denna rapport gjordes för 11 minuter sedan, klockan 16:00 UTC
Vind 4 kt från sydost, varierande mellan ost och syd
Temperatur 15°C
Fuktighet 77%
Tryck 1012 hPa
Sikt 10 km eller mer
Brutna moln på en höjd av 2600 ft

METAR: LFKS 291600Z AUTO 13004KT 090V170 9999 BKN026 15/11 Q1012

Tid: 18:11 (16:11 UTC)

Väderprognos

Denna rapport gjordes för 8 timmar och 11 minuter sedan, klockan 08:00 UTC
Prognos gäller från 29 kl. 09 UTC till 30 kl. 09 UTC
Vind 10 kt från sydost
Sikt 10 km eller mer
Inga moln under 1 500 m eller inga cumulonimbus

TAF: LFKS 290800Z 2909/3009 14010KT CAVOK

Aktuella väderrapporter och prognoser från 4000 flygplatser (METAR- och TAF-rapporter).

De tillgängliga stationerna syns som gula och röda prickar på kartan.

För musen över prickarna för att se namnen på stationerna.

Klicka sedan för att få väderrapporter och prognoser.

För att ändra kartan: Klicka på de gröna knapparna med ett svart kors på för att zooma in; den gröna knappen med ett streck på för att zooma ut; eller på de gröna pilarna för angränsande kartor.


METAR-TAF: